Terminal Aerodrome Forecast
Issued by NWS Omaha/Valley, NE

Home | Current Version | Previous Version | Text Only | Print | Product List | Glossary On
Versions: 1 2 3 4 5 6 7 8 9 10 11 12 13 14 15 16 17 18 19 20 21 22 23 24 25 26 27 28 29 30 31
869
FTUS43 KOAX 272005 AAC
TAFLNK
TAF AMD
KLNK 272005Z 2720/2818 17015G24KT P6SM BKN060
     FM272300 16012G20KT P6SM BKN040
      TEMPO 2800/2802 BKN020
     FM280500 17007KT 4SM BR SCT007 BKN100
     FM281100 20006KT 4SM BR SCT007 BKN090
     FM281500 30006KT 6SM BR BKN025=

USA.gov is the U.S. government's official web portal to all federal, state and local government web resources and services.